createdAt,value
2019-03-06T00:01:15.695Z,71.46
2019-03-06T00:03:45.501Z,71.44
2019-03-06T00:06:17.064Z,71.61
2019-03-06T00:08:46.672Z,71.78
2019-03-06T00:11:16.670Z,71.85
2019-03-06T00:13:46.441Z,71.86
2019-03-06T00:16:16.172Z,71.70
2019-03-06T00:18:45.907Z,71.88
2019-03-06T00:21:15.669Z,72.25
2019-03-06T00:23:45.540Z,72.64
2019-03-06T00:26:15.341Z,72.73
2019-03-06T00:28:45.173Z,72.84
2019-03-06T00:31:14.911Z,73.11
2019-03-06T00:33:44.803Z,73.21
2019-03-06T00:36:16.268Z,73.67
2019-03-06T00:38:46.100Z,74.02
2019-03-06T00:41:17.436Z,74.48
2019-03-06T00:43:47.169Z,74.85
2019-03-06T00:46:17.085Z,75.24
2019-03-06T00:48:46.748Z,75.56
2019-03-06T00:51:16.573Z,76.02
2019-03-06T00:53:46.303Z,76.33
2019-03-06T00:56:16.435Z,76.75
2019-03-06T00:58:46.119Z,77.03
2019-03-06T01:01:16.554Z,77.30
2019-03-06T01:03:46.413Z,77.70
2019-03-06T01:06:16.263Z,78.13
2019-03-06T01:08:45.960Z,78.22
2019-03-06T01:11:15.766Z,78.59
2019-03-06T01:13:45.505Z,79.18
2019-03-06T01:16:15.288Z,79.46
2019-03-06T01:18:45.100Z,79.71
2019-03-06T01:21:15.045Z,79.88
2019-03-06T01:23:44.789Z,79.98
2019-03-06T01:26:14.506Z,80.16
2019-03-06T01:28:44.298Z,80.44
2019-03-06T01:31:14.170Z,80.60
2019-03-06T01:33:45.512Z,80.89
2019-03-06T01:36:19.876Z,80.98
2019-03-06T01:39:03.821Z,80.83
2019-03-06T01:41:50.229Z,81.06
2019-03-06T01:44:27.507Z,81.23
2019-03-06T01:46:57.240Z,81.42
2019-03-06T01:49:26.985Z,81.58
2019-03-06T01:51:56.683Z,81.88
2019-03-06T01:54:26.572Z,82.10
2019-03-06T01:56:56.278Z,82.06
2019-03-06T01:59:26.092Z,82.13
2019-03-06T02:01:55.874Z,82.42
2019-03-06T02:04:25.753Z,82.52
2019-03-06T02:06:55.558Z,82.85
2019-03-06T02:09:28.261Z,82.96
2019-03-06T02:11:58.195Z,82.85
2019-03-06T02:14:27.997Z,82.93
2019-03-06T02:16:57.760Z,83.05
2019-03-06T02:19:27.473Z,83.02
2019-03-06T02:21:57.415Z,82.97
2019-03-06T02:24:27.129Z,82.92
2019-03-06T02:26:56.954Z,82.68
2019-03-06T02:29:26.826Z,82.70
2019-03-06T02:31:56.515Z,82.48
2019-03-06T02:34:26.203Z,82.73
2019-03-06T02:36:55.930Z,82.91
2019-03-06T02:39:25.660Z,83.09
2019-03-06T02:41:55.372Z,82.90
2019-03-06T02:44:25.037Z,82.89
2019-03-06T02:46:54.757Z,82.92
2019-03-06T02:49:24.450Z,82.64
2019-03-06T02:51:54.175Z,82.65
2019-03-06T02:54:23.842Z,82.72
2019-03-06T02:56:53.619Z,82.74
2019-03-06T02:59:27.699Z,82.88
2019-03-06T03:02:01.742Z,82.85
2019-03-06T03:04:35.645Z,82.43
2019-03-06T03:07:07.072Z,82.55
2019-03-06T03:09:37.024Z,82.36
2019-03-06T03:12:06.669Z,82.60
2019-03-06T03:14:36.445Z,82.74
2019-03-06T03:17:06.487Z,82.79
2019-03-06T03:19:36.298Z,82.91
2019-03-06T03:22:06.485Z,82.90
2019-03-06T03:24:36.153Z,82.94
2019-03-06T03:27:06.051Z,82.62
2019-03-06T03:29:35.689Z,82.41
2019-03-06T03:32:05.695Z,82.24
2019-03-06T03:34:35.630Z,82.54
2019-03-06T03:37:05.471Z,82.60
2019-03-06T03:39:35.208Z,82.66
2019-03-06T03:42:05.465Z,82.92
2019-03-06T03:44:35.101Z,82.71
2019-03-06T03:47:05.124Z,82.33
2019-03-06T03:49:34.874Z,82.55
2019-03-06T03:52:04.681Z,82.50
2019-03-06T03:54:34.323Z,82.39
2019-03-06T03:57:04.149Z,82.71
2019-03-06T03:59:33.980Z,82.27
2019-03-06T04:02:03.693Z,82.21
2019-03-06T04:04:33.417Z,82.35
2019-03-06T04:07:03.288Z,82.28
2019-03-06T04:09:33.267Z,82.00
2019-03-06T04:12:02.928Z,81.80
2019-03-06T04:14:32.593Z,82.03
2019-03-06T04:17:02.595Z,81.47
2019-03-06T04:19:32.327Z,81.49
2019-03-06T04:22:02.053Z,81.44
2019-03-06T04:24:31.914Z,81.56
2019-03-06T04:27:01.939Z,81.45
2019-03-06T04:29:31.808Z,81.14
2019-03-06T04:32:01.493Z,81.21
2019-03-06T04:34:31.187Z,81.30
2019-03-06T04:37:01.040Z,81.41
2019-03-06T04:39:30.736Z,81.38
2019-03-06T04:42:00.522Z,81.60
2019-03-06T04:44:30.260Z,81.88
2019-03-06T04:46:59.958Z,82.11
2019-03-06T04:49:30.067Z,82.31
2019-03-06T04:51:59.850Z,81.97
2019-03-06T04:54:29.627Z,81.76
2019-03-06T04:57:03.926Z,81.75
2019-03-06T04:59:34.608Z,81.44
2019-03-06T05:02:04.307Z,81.57
2019-03-06T05:04:34.171Z,81.64
2019-03-06T05:07:04.071Z,81.73
2019-03-06T05:09:33.915Z,81.55
2019-03-06T05:12:03.882Z,81.51
2019-03-06T05:14:33.579Z,81.15
2019-03-06T05:17:17.676Z,81.02
2019-03-06T05:19:47.454Z,81.29
2019-03-06T05:22:17.107Z,81.42
2019-03-06T05:24:46.802Z,81.46
2019-03-06T05:27:16.634Z,81.54
2019-03-06T05:29:46.428Z,81.32
2019-03-06T05:32:37.084Z,81.23
2019-03-06T05:35:26.127Z,81.23
2019-03-06T05:38:09.581Z,81.30
2019-03-06T05:40:39.350Z,81.16
2019-03-06T05:43:09.170Z,81.17
2019-03-06T05:45:38.908Z,81.55
2019-03-06T05:48:08.664Z,81.29
2019-03-06T05:50:38.374Z,81.52
2019-03-06T05:53:08.117Z,80.72
2019-03-06T05:55:37.870Z,80.89
2019-03-06T05:58:07.901Z,80.76
2019-03-06T06:00:37.614Z,80.51
2019-03-06T06:03:07.398Z,80.42
2019-03-06T06:05:37.069Z,80.41
2019-03-06T06:08:06.864Z,80.19
2019-03-06T06:10:36.973Z,80.04
2019-03-06T06:13:06.867Z,79.83
2019-03-06T06:15:36.839Z,79.72
2019-03-06T06:18:06.531Z,80.05
2019-03-06T06:20:36.205Z,79.87
2019-03-06T06:23:10.492Z,79.86
2019-03-06T06:25:40.286Z,79.84
2019-03-06T06:28:10.294Z,79.49
2019-03-06T06:30:40.061Z,78.90
2019-03-06T06:33:11.462Z,78.88
2019-03-06T06:35:41.278Z,78.39
2019-03-06T06:38:11.285Z,78.18
2019-03-06T06:40:41.169Z,77.83
2019-03-06T06:43:10.822Z,78.03
2019-03-06T06:45:40.672Z,77.86
2019-03-06T06:48:16.263Z,77.55
2019-03-06T06:51:01.552Z,77.43
2019-03-06T06:53:59.865Z,76.69
2019-03-06T06:57:07.615Z,76.13
2019-03-06T06:59:56.814Z,76.01
2019-03-06T07:03:15.677Z,76.15
2019-03-06T07:05:47.025Z,75.91
2019-03-06T07:08:20.947Z,75.83
2019-03-06T07:11:01.024Z,75.39
2019-03-06T07:13:47.370Z,75.20
2019-03-06T07:16:34.611Z,75.22
2019-03-06T07:19:12.335Z,74.89
2019-03-06T07:21:49.376Z,74.70
2019-03-06T07:24:20.923Z,74.33
2019-03-06T07:27:02.168Z,74.42
2019-03-06T07:29:31.648Z,74.59
2019-03-06T07:32:11.601Z,74.18
2019-03-06T07:35:00.597Z,74.06
2019-03-06T07:37:40.655Z,73.99
2019-03-06T07:40:12.457Z,73.55
2019-03-06T07:42:46.375Z,72.90
2019-03-06T07:45:51.873Z,72.71
2019-03-06T07:48:25.893Z,72.87
2019-03-06T07:50:59.884Z,72.69
2019-03-06T07:54:08.122Z,72.19
2019-03-06T07:56:43.565Z,71.78
2019-03-06T07:59:13.369Z,71.21
2019-03-06T08:02:12.270Z,70.42
2019-03-06T08:04:50.104Z,70.43
2019-03-06T08:07:20.083Z,70.01
2019-03-06T08:09:50.548Z,69.90
2019-03-06T08:12:24.765Z,69.53
2019-03-06T08:15:12.259Z,69.16
2019-03-06T08:17:58.895Z,68.96
2019-03-06T08:20:42.246Z,68.59
2019-03-06T08:23:13.579Z,67.84
2019-03-06T08:25:46.553Z,67.93
2019-03-06T08:28:16.497Z,66.87
2019-03-06T08:30:57.098Z,66.72
2019-03-06T08:33:26.945Z,65.99
2019-03-06T08:35:56.774Z,65.53
2019-03-06T08:38:26.607Z,65.06
2019-03-06T08:41:03.825Z,64.64
2019-03-06T08:43:27.783Z,64.89
2019-03-06T08:46:09.618Z,64.72
2019-03-06T08:48:57.351Z,63.63
2019-03-06T08:51:35.138Z,64.21
2019-03-06T08:54:15.339Z,63.90
2019-03-06T08:56:46.710Z,63.20
2019-03-06T08:59:18.750Z,62.30
2019-03-06T09:02:00.516Z,61.45
2019-03-06T09:04:31.013Z,61.33
2019-03-06T09:07:18.417Z,61.03
2019-03-06T09:09:56.508Z,61.27
2019-03-06T09:12:29.062Z,60.70
2019-03-06T09:15:09.125Z,59.84
2019-03-06T09:17:58.920Z,60.51
2019-03-06T09:20:41.116Z,60.36
2019-03-06T09:23:23.218Z,60.66
2019-03-06T09:25:51.609Z,60.55
2019-03-06T09:28:36.605Z,59.70
2019-03-06T09:31:14.554Z,59.63
2019-03-06T09:34:01.985Z,59.79
2019-03-06T09:36:33.636Z,59.68
2019-03-06T09:39:19.836Z,59.69
2019-03-06T09:42:07.218Z,59.38
2019-03-06T09:44:50.725Z,59.30
2019-03-06T09:47:31.056Z,58.73
2019-03-06T09:50:02.727Z,58.58
2019-03-06T09:52:50.295Z,58.17
2019-03-06T09:55:25.775Z,57.93
2019-03-06T09:57:57.386Z,57.36
2019-03-06T10:00:32.796Z,56.80
2019-03-06T10:03:20.456Z,56.64
2019-03-06T10:05:54.639Z,56.16
2019-03-06T10:08:44.317Z,55.63
2019-03-06T10:11:27.277Z,54.99
2019-03-06T10:13:58.644Z,55.07
2019-03-06T10:16:39.235Z,54.91
2019-03-06T10:19:11.669Z,54.72
2019-03-06T10:21:41.449Z,54.67
2019-03-06T10:24:11.567Z,54.68
2019-03-06T10:26:41.464Z,54.84
2019-03-06T10:29:11.373Z,54.96
2019-03-06T10:31:41.257Z,54.83
2019-03-06T10:34:11.204Z,54.81
2019-03-06T10:36:40.972Z,54.26
2019-03-06T10:39:15.995Z,54.10
2019-03-06T10:41:45.888Z,53.18
2019-03-06T10:44:15.874Z,53.39
2019-03-06T10:46:45.805Z,52.83
2019-03-06T10:49:15.768Z,52.83
2019-03-06T10:51:45.664Z,52.28
2019-03-06T10:54:15.537Z,51.98
2019-03-06T10:56:45.299Z,51.81
2019-03-06T10:59:15.175Z,51.09
2019-03-06T11:01:45.175Z,50.85
2019-03-06T11:04:31.750Z,51.11
2019-03-06T11:07:01.734Z,51.02
2019-03-06T11:09:31.893Z,51.06
2019-03-06T11:12:01.791Z,50.97
2019-03-06T11:14:31.990Z,50.19
2019-03-06T11:17:01.800Z,49.96
2019-03-06T11:19:31.959Z,50.04
2019-03-06T11:22:01.875Z,50.19
2019-03-06T11:24:32.161Z,50.34
2019-03-06T11:27:02.346Z,50.54
2019-03-06T11:29:32.332Z,50.24
2019-03-06T11:32:02.432Z,50.56
2019-03-06T11:34:32.346Z,50.60
2019-03-06T11:37:02.517Z,50.15
2019-03-06T11:39:32.452Z,49.39
2019-03-06T11:42:02.516Z,48.81
2019-03-06T11:44:32.321Z,48.71
2019-03-06T11:47:02.249Z,48.96
2019-03-06T11:49:32.010Z,49.01
2019-03-06T11:52:03.581Z,48.72
2019-03-06T11:54:33.622Z,48.56
2019-03-06T11:57:03.447Z,48.63
2019-03-06T11:59:33.331Z,48.13
2019-03-06T12:02:03.280Z,48.05
2019-03-06T12:04:33.523Z,48.24
2019-03-06T12:07:03.459Z,48.33
2019-03-06T12:09:33.735Z,48.44
2019-03-06T12:12:03.842Z,48.15
2019-03-06T12:14:34.033Z,47.97
2019-03-06T12:17:03.998Z,48.04
2019-03-06T12:19:34.338Z,48.42
2019-03-06T12:22:04.488Z,48.58
2019-03-06T12:24:34.265Z,48.34
2019-03-06T12:27:04.250Z,48.41
2019-03-06T12:29:34.053Z,48.66
2019-03-06T12:32:05.370Z,47.79
2019-03-06T12:34:35.186Z,47.71
2019-03-06T12:37:05.222Z,47.79
2019-03-06T12:39:34.981Z,47.90
2019-03-06T12:42:13.766Z,48.21
2019-03-06T12:44:36.482Z,48.45
2019-03-06T12:47:06.378Z,50.32
2019-03-06T12:49:36.204Z,48.79
2019-03-06T12:52:06.418Z,49.09
2019-03-06T12:54:36.211Z,49.31
2019-03-06T12:57:06.867Z,49.73
2019-03-06T12:59:36.763Z,49.90
2019-03-06T13:02:06.867Z,50.65
2019-03-06T13:04:36.774Z,51.03
2019-03-06T13:07:06.550Z,50.94
2019-03-06T13:09:37.617Z,51.14
2019-03-06T13:12:07.740Z,50.90
2019-03-06T13:14:37.649Z,51.25
2019-03-06T13:17:07.942Z,51.46
2019-03-06T13:19:37.896Z,51.59
2019-03-06T13:22:11.165Z,51.38
2019-03-06T13:24:39.323Z,51.74
2019-03-06T13:27:09.302Z,51.80
2019-03-06T13:29:39.070Z,51.68
2019-03-06T13:32:11.710Z,51.36
2019-03-06T13:34:40.305Z,51.86
2019-03-06T13:37:10.053Z,51.98
2019-03-06T13:39:40.207Z,51.33
2019-03-06T13:42:09.955Z,51.81
2019-03-06T13:44:39.785Z,52.10
2019-03-06T13:47:09.575Z,52.64
2019-03-06T13:49:39.250Z,52.56
2019-03-06T13:52:09.074Z,52.35
2019-03-06T13:54:38.736Z,52.55
2019-03-06T13:57:10.081Z,52.44
2019-03-06T13:59:39.913Z,52.62
2019-03-06T14:02:10.169Z,52.76
2019-03-06T14:04:39.947Z,52.68
2019-03-06T14:07:09.848Z,52.56
2019-03-06T14:09:39.725Z,52.53
2019-03-06T14:12:09.495Z,52.26
2019-03-06T14:14:39.200Z,52.35
2019-03-06T14:17:08.939Z,53.28
2019-03-06T14:19:38.771Z,54.20
2019-03-06T14:22:08.617Z,54.60
2019-03-06T14:24:38.365Z,55.17
2019-03-06T14:27:09.499Z,56.36
2019-03-06T14:29:39.379Z,57.78
2019-03-06T14:32:14.678Z,58.14
2019-03-06T14:34:40.676Z,58.88
2019-03-06T14:37:10.498Z,60.05
2019-03-06T14:39:40.311Z,60.65
2019-03-06T14:42:10.231Z,61.08
2019-03-06T14:44:40.484Z,60.68
2019-03-06T14:47:11.146Z,62.26
2019-03-06T14:49:40.948Z,63.81
2019-03-06T14:52:10.838Z,65.87
2019-03-06T14:54:40.813Z,65.87
2019-03-06T14:57:10.753Z,66.07
2019-03-06T14:59:40.644Z,66.68
2019-03-06T15:02:10.737Z,67.04
2019-03-06T15:04:40.513Z,67.10
2019-03-06T15:07:10.328Z,66.86
2019-03-06T15:09:40.162Z,66.53
2019-03-06T15:12:09.863Z,67.28
2019-03-06T15:14:39.617Z,67.71
2019-03-06T15:17:09.411Z,67.54
2019-03-06T15:19:39.381Z,67.02
2019-03-06T15:22:09.182Z,67.30
2019-03-06T15:24:41.646Z,67.17
2019-03-06T15:27:10.463Z,66.80
2019-03-06T15:29:40.791Z,66.76
2019-03-06T15:32:10.600Z,66.60
2019-03-06T15:34:40.402Z,66.48
2019-03-06T15:37:10.273Z,66.46
2019-03-06T15:39:48.257Z,66.74
2019-03-06T15:42:12.208Z,66.74
2019-03-06T15:44:42.057Z,66.72
2019-03-06T15:47:11.815Z,67.02
2019-03-06T15:49:41.932Z,66.83
2019-03-06T15:52:12.202Z,66.46
2019-03-06T15:54:42.100Z,66.42
2019-03-06T15:57:12.193Z,66.46
2019-03-06T15:59:42.050Z,66.71
2019-03-06T16:02:11.967Z,65.96
2019-03-06T16:04:42.120Z,66.04
2019-03-06T16:07:11.871Z,65.76
2019-03-06T16:09:41.867Z,65.72
2019-03-06T16:12:12.444Z,66.22
2019-03-06T16:14:42.790Z,65.70
2019-03-06T16:17:12.708Z,65.91
2019-03-06T16:19:42.437Z,66.24
2019-03-06T16:22:13.215Z,66.56
2019-03-06T16:24:43.004Z,67.08
2019-03-06T16:27:12.913Z,67.07
2019-03-06T16:29:42.649Z,66.88
2019-03-06T16:32:12.565Z,67.17
2019-03-06T16:34:42.282Z,67.16
2019-03-06T16:37:12.155Z,67.82
2019-03-06T16:39:42.353Z,68.53
2019-03-06T16:42:12.209Z,68.27
2019-03-06T16:44:42.092Z,68.39
2019-03-06T16:47:12.958Z,68.67
2019-03-06T16:49:42.939Z,68.54
2019-03-06T16:52:13.401Z,68.37
2019-03-06T16:54:43.284Z,68.52
2019-03-06T16:57:13.131Z,68.41
2019-03-06T16:59:43.063Z,68.28
2019-03-06T17:02:13.174Z,68.25
2019-03-06T17:04:43.146Z,68.08
2019-03-06T17:07:13.208Z,68.27
2019-03-06T17:09:43.220Z,68.51
2019-03-06T17:12:13.387Z,69.04
2019-03-06T17:14:44.507Z,69.83
2019-03-06T17:17:14.355Z,70.78
2019-03-06T17:19:44.435Z,71.08
2019-03-06T17:22:14.565Z,71.65
2019-03-06T17:24:44.283Z,71.96
2019-03-06T17:27:14.228Z,72.73
2019-03-06T17:29:44.428Z,72.95
2019-03-06T17:32:14.304Z,73.49
2019-03-06T17:34:43.987Z,73.74
2019-03-06T17:37:13.837Z,74.18
2019-03-06T17:39:43.627Z,74.38
2019-03-06T17:42:13.633Z,74.48
2019-03-06T17:44:43.492Z,74.78
2019-03-06T17:47:13.214Z,74.61
2019-03-06T17:49:42.982Z,75.30
2019-03-06T17:52:12.793Z,74.99
2019-03-06T17:54:42.512Z,75.01
2019-03-06T17:57:12.697Z,75.54
2019-03-06T17:59:43.297Z,75.49
2019-03-06T18:02:13.472Z,75.67
2019-03-06T18:04:43.284Z,75.33
2019-03-06T18:07:13.445Z,75.69
2019-03-06T18:09:43.478Z,75.63
2019-03-06T18:12:13.260Z,75.71
2019-03-06T18:14:42.952Z,76.04
2019-03-06T18:17:12.937Z,75.68
2019-03-06T18:19:42.721Z,76.15
2019-03-06T18:22:12.585Z,76.26
2019-03-06T18:24:42.798Z,76.75
2019-03-06T18:27:12.681Z,76.71
2019-03-06T18:29:42.483Z,77.02
2019-03-06T18:32:12.348Z,77.19
2019-03-06T18:34:42.128Z,77.30
2019-03-06T18:37:12.050Z,77.27
2019-03-06T18:39:41.829Z,76.91
2019-03-06T18:42:11.686Z,76.90
2019-03-06T18:44:41.467Z,76.12
2019-03-06T18:47:11.281Z,76.09
2019-03-06T18:49:41.172Z,76.18
2019-03-06T18:52:10.906Z,75.61
2019-03-06T18:54:40.766Z,75.39
2019-03-06T18:57:10.672Z,75.87
2019-03-06T18:59:40.463Z,75.96
2019-03-06T19:02:10.354Z,75.92
2019-03-06T19:04:40.183Z,75.93
2019-03-06T19:07:10.090Z,75.88
2019-03-06T19:09:40.006Z,75.97
2019-03-06T19:12:09.902Z,76.33
2019-03-06T19:14:39.663Z,76.48
2019-03-06T19:17:09.509Z,76.15
2019-03-06T19:19:39.615Z,75.95
2019-03-06T19:22:09.441Z,75.48
2019-03-06T19:24:39.349Z,75.60
2019-03-06T19:27:09.180Z,75.54
2019-03-06T19:29:39.114Z,75.34
2019-03-06T19:32:08.961Z,75.39
2019-03-06T19:34:38.694Z,75.02
2019-03-06T19:37:08.564Z,74.56
2019-03-06T19:39:38.213Z,74.27
2019-03-06T19:42:08.026Z,74.50
2019-03-06T19:44:37.858Z,74.52
2019-03-06T19:47:07.775Z,74.44
2019-03-06T19:49:37.950Z,74.47
2019-03-06T19:52:07.893Z,73.79
2019-03-06T19:54:37.755Z,73.72
2019-03-06T19:57:07.823Z,74.42
2019-03-06T19:59:37.633Z,74.50
2019-03-06T20:02:08.126Z,74.31
2019-03-06T20:04:38.284Z,74.03
2019-03-06T20:07:08.260Z,73.65
2019-03-06T20:09:38.358Z,73.71
2019-03-06T20:12:08.721Z,74.14
2019-03-06T20:14:38.604Z,74.82
2019-03-06T20:17:08.443Z,74.92
2019-03-06T20:19:38.433Z,75.01
2019-03-06T20:22:08.296Z,75.06
2019-03-06T20:24:38.064Z,75.38
2019-03-06T20:27:08.032Z,75.49
2019-03-06T20:29:37.863Z,75.84
2019-03-06T20:32:07.933Z,76.18
2019-03-06T20:34:37.799Z,76.24
2019-03-06T20:37:08.028Z,76.72
2019-03-06T20:39:38.142Z,76.88
2019-03-06T20:42:08.105Z,76.97
2019-03-06T20:44:37.833Z,77.24
2019-03-06T20:47:07.800Z,77.28
2019-03-06T20:49:37.484Z,77.32
2019-03-06T20:52:07.318Z,77.26
2019-03-06T20:54:37.067Z,77.73
2019-03-06T20:57:07.028Z,78.07
2019-03-06T20:59:36.690Z,78.35
2019-03-06T21:02:06.632Z,78.61
2019-03-06T21:04:36.492Z,78.36
2019-03-06T21:07:06.264Z,78.58
2019-03-06T21:09:36.071Z,78.73
2019-03-06T21:12:05.897Z,78.75
2019-03-06T21:14:35.823Z,78.88
2019-03-06T21:17:07.087Z,78.98
2019-03-06T21:19:36.887Z,79.06
2019-03-06T21:22:07.071Z,78.84
2019-03-06T21:24:36.960Z,79.16
2019-03-06T21:27:06.857Z,79.42
2019-03-06T21:29:36.663Z,79.59
2019-03-06T21:32:06.592Z,79.60
2019-03-06T21:34:36.526Z,79.51
2019-03-06T21:37:06.585Z,79.75
2019-03-06T21:39:36.323Z,79.75
2019-03-06T21:42:06.170Z,79.78
2019-03-06T21:44:36.132Z,79.10
2019-03-06T21:47:06.031Z,79.32
2019-03-06T21:49:35.930Z,79.42
2019-03-06T21:52:05.900Z,78.92
2019-03-06T21:54:35.743Z,78.72
2019-03-06T21:57:05.757Z,77.99
2019-03-06T21:59:35.659Z,77.75
2019-03-06T22:02:05.524Z,78.19
2019-03-06T22:04:35.386Z,78.46
2019-03-06T22:07:05.684Z,78.33
2019-03-06T22:09:36.218Z,78.60
2019-03-06T22:12:06.180Z,78.78
2019-03-06T22:14:35.866Z,78.73
2019-03-06T22:17:05.824Z,78.80
2019-03-06T22:19:35.648Z,79.14
2019-03-06T22:22:05.583Z,79.37
2019-03-06T22:24:35.373Z,79.07
2019-03-06T22:27:05.305Z,79.08
2019-03-06T22:29:35.345Z,79.38
2019-03-06T22:32:05.201Z,79.33
2019-03-06T22:34:34.979Z,79.61
2019-03-06T22:37:04.743Z,80.14
2019-03-06T22:39:34.454Z,80.33
2019-03-06T22:42:04.283Z,79.75
2019-03-06T22:44:34.176Z,79.92
2019-03-06T22:47:03.999Z,80.31
2019-03-06T22:49:33.689Z,80.41
2019-03-06T22:52:03.411Z,80.42
2019-03-06T22:54:33.271Z,80.55
2019-03-06T22:57:03.084Z,80.11
2019-03-06T22:59:32.837Z,80.06
2019-03-06T23:02:02.804Z,79.92
2019-03-06T23:04:32.662Z,79.85
2019-03-06T23:07:02.566Z,80.09
2019-03-06T23:09:32.430Z,80.35
2019-03-06T23:12:02.165Z,80.38
2019-03-06T23:14:32.308Z,80.34
2019-03-06T23:17:02.131Z,80.22
2019-03-06T23:19:31.947Z,80.38
2019-03-06T23:22:01.748Z,79.86
2019-03-06T23:24:31.533Z,80.05
2019-03-06T23:27:01.375Z,80.19
2019-03-06T23:29:31.123Z,80.31
2019-03-06T23:32:00.840Z,80.17
2019-03-06T23:34:30.543Z,80.13
2019-03-06T23:37:00.253Z,79.97
2019-03-06T23:39:30.012Z,79.79
2019-03-06T23:42:00.017Z,79.82
2019-03-06T23:44:29.756Z,79.72
2019-03-06T23:46:59.443Z,79.68
2019-03-06T23:49:29.169Z,79.64
2019-03-06T23:52:00.188Z,79.98
2019-03-06T23:54:30.201Z,80.01
2019-03-06T23:57:00.085Z,79.93
2019-03-06T23:59:29.927Z,79.84
